Saint Petersburg, Florida
Current Conditions -  °F | °C
As of 2:53 PM on Friday 21 Nov 2014 (Local Time) from KSPG Reporting Station
Overcast Overcast  
Wind Chill: 68°   Ceiling: 9000
Heat Index: 68°   Visibility: 10mi
Dew Point: 57°   Wind: 14mph
Humidity: 68%   Direction: 70°ENE
Pressure: 30.19"   Gusts: NA
Location:  27.77°N, 82.63°W
Report Text: KSPG 211953Z 07012KT 10SM BKN090 OVC100 20/14 A3019 RMK AO2 SLP222 T02000139
Loading
Personal Weather Stations






























Interactive Weather Map New forecast layout! Learn more

10-Day Weather Forecast

Advertisements
Track Severe Weather on mobile